createdAt,value
2022-10-25T00:02:26.360Z,71.20
2022-10-25T00:05:16.511Z,71.20
2022-10-25T00:08:06.324Z,71.20
2022-10-25T00:10:54.853Z,71.20
2022-10-25T00:13:43.439Z,71.20
2022-10-25T00:16:34.368Z,71.10
2022-10-25T00:19:22.536Z,71.20
2022-10-25T00:22:10.846Z,71.20
2022-10-25T00:25:00.301Z,71.20
2022-10-25T00:27:48.766Z,71.20
2022-10-25T00:30:37.450Z,71.20
2022-10-25T00:33:25.927Z,71.30
2022-10-25T00:36:17.026Z,71.30
2022-10-25T00:39:05.263Z,71.20
2022-10-25T00:41:55.143Z,71.30
2022-10-25T00:44:51.179Z,71.30
2022-10-25T00:47:49.248Z,71.40
2022-10-25T00:50:46.861Z,71.20
2022-10-25T00:53:38.151Z,71.20
2022-10-25T00:56:30.223Z,71.30
2022-10-25T00:59:22.401Z,71.30
2022-10-25T01:02:11.489Z,71.30
2022-10-25T01:05:00.206Z,71.40
2022-10-25T01:07:48.842Z,71.40
2022-10-25T01:10:37.498Z,71.40
2022-10-25T01:13:26.551Z,71.40
2022-10-25T01:16:25.815Z,71.30
2022-10-25T01:22:35.424Z,71.40
2022-10-25T01:25:46.311Z,71.40
2022-10-25T01:28:44.809Z,71.40
2022-10-25T01:31:40.752Z,71.40
2022-10-25T01:34:34.288Z,71.40
2022-10-25T01:37:29.119Z,71.40
2022-10-25T01:40:24.806Z,71.40
2022-10-25T01:43:22.763Z,71.40
2022-10-25T01:46:17.662Z,71.40
2022-10-25T01:49:10.252Z,71.40
2022-10-25T01:51:58.711Z,71.90
2022-10-25T01:54:47.466Z,71.40
2022-10-25T01:57:54.311Z,71.40
2022-10-25T02:00:51.966Z,71.30
2022-10-25T02:03:49.015Z,71.40
2022-10-25T02:06:48.624Z,71.40
2022-10-25T02:09:47.975Z,71.50
2022-10-25T02:12:44.708Z,71.50
2022-10-25T02:15:39.836Z,71.50
2022-10-25T02:18:32.308Z,71.50
2022-10-25T02:21:22.120Z,71.50
2022-10-25T02:24:19.401Z,71.60
2022-10-25T02:27:09.259Z,71.60
2022-10-25T02:29:58.378Z,71.50
2022-10-25T02:32:47.168Z,71.60
2022-10-25T02:35:35.955Z,71.60
2022-10-25T02:38:23.849Z,71.60
2022-10-25T02:41:13.894Z,71.50
2022-10-25T02:44:02.208Z,71.60
2022-10-25T02:46:50.974Z,71.60
2022-10-25T02:49:39.525Z,71.50
2022-10-25T02:52:28.050Z,71.60
2022-10-25T02:55:16.197Z,71.60
2022-10-25T02:58:06.367Z,71.50
2022-10-25T03:00:54.787Z,71.60
2022-10-25T03:03:43.624Z,71.60
2022-10-25T03:06:31.903Z,71.60
2022-10-25T03:09:20.889Z,72.10
2022-10-25T03:12:08.919Z,71.60
2022-10-25T03:14:59.039Z,71.60
2022-10-25T03:17:47.828Z,71.60
2022-10-25T03:20:36.432Z,71.60
2022-10-25T03:23:24.404Z,71.70
2022-10-25T03:26:12.707Z,71.60
2022-10-25T03:29:01.009Z,72.00
2022-10-25T03:31:51.083Z,71.70
2022-10-25T03:34:39.590Z,71.70
2022-10-25T03:37:27.990Z,71.70
2022-10-25T03:40:16.357Z,71.60
2022-10-25T03:43:05.314Z,71.60
2022-10-25T03:45:53.564Z,71.50
2022-10-25T03:48:43.328Z,71.40
2022-10-25T03:51:32.064Z,71.40
2022-10-25T03:54:21.186Z,71.30
2022-10-25T03:57:10.800Z,71.40
2022-10-25T03:59:59.876Z,71.40
2022-10-25T04:02:48.139Z,71.30
2022-10-25T04:05:38.329Z,71.30
2022-10-25T04:08:26.345Z,71.30
2022-10-25T04:11:15.008Z,71.40
2022-10-25T04:14:03.348Z,71.30
2022-10-25T04:16:52.963Z,71.30
2022-10-25T04:19:40.943Z,71.40
2022-10-25T04:22:31.167Z,71.30
2022-10-25T04:25:19.769Z,71.40
2022-10-25T04:28:08.787Z,71.40
2022-10-25T04:30:56.905Z,71.30
2022-10-25T04:33:48.150Z,71.40
2022-10-25T04:36:39.095Z,71.30
2022-10-25T04:39:29.124Z,71.50
2022-10-25T04:42:17.698Z,71.50
2022-10-25T04:45:07.184Z,71.60
2022-10-25T04:47:55.687Z,71.60
2022-10-25T04:50:44.230Z,71.60
2022-10-25T04:53:32.473Z,71.60
2022-10-25T04:56:24.558Z,71.70
2022-10-25T04:59:12.892Z,71.60
2022-10-25T05:02:01.624Z,71.60
2022-10-25T05:04:49.718Z,71.60
2022-10-25T05:07:38.285Z,71.60
2022-10-25T05:10:26.214Z,71.60
2022-10-25T05:13:16.146Z,71.50
2022-10-25T05:16:04.839Z,71.60
2022-10-25T05:18:55.501Z,71.60
2022-10-25T05:21:43.507Z,71.60
2022-10-25T05:24:31.585Z,71.70
2022-10-25T05:27:20.286Z,70.90
2022-10-25T05:30:11.384Z,67.70
2022-10-25T05:33:02.741Z,67.10
2022-10-25T05:35:53.466Z,67.10
2022-10-25T05:38:42.053Z,67.20
2022-10-25T05:41:34.559Z,67.50
2022-10-25T05:44:25.135Z,67.30
2022-10-25T05:47:15.205Z,67.50
2022-10-25T05:50:03.555Z,67.80
2022-10-25T05:52:52.026Z,67.80
2022-10-25T05:55:40.466Z,68.00
2022-10-25T05:58:28.742Z,68.40
2022-10-25T06:01:18.741Z,69.70
2022-10-25T06:04:08.961Z,69.40
2022-10-25T06:06:58.096Z,69.30
2022-10-25T06:09:46.602Z,69.20
2022-10-25T06:12:34.904Z,69.20
2022-10-25T06:15:23.354Z,69.80
2022-10-25T06:18:11.868Z,69.50
2022-10-25T06:21:04.363Z,69.80
2022-10-25T06:23:53.454Z,69.90
2022-10-25T06:26:41.676Z,70.20
2022-10-25T06:29:29.809Z,70.20
2022-10-25T06:32:18.364Z,70.20
2022-10-25T06:35:07.694Z,70.30
2022-10-25T06:38:00.414Z,70.30
2022-10-25T06:40:48.547Z,70.20
2022-10-25T06:43:38.950Z,70.10
2022-10-25T06:46:29.373Z,70.00
2022-10-25T06:49:18.212Z,69.90
2022-10-25T06:52:06.703Z,69.60
2022-10-25T06:54:56.989Z,69.50
2022-10-25T06:57:45.035Z,69.10
2022-10-25T07:00:33.642Z,69.00
2022-10-25T07:03:30.021Z,69.30
2022-10-25T07:06:22.932Z,69.70
2022-10-25T07:09:12.534Z,70.00
2022-10-25T07:12:02.596Z,69.40
2022-10-25T07:14:50.601Z,68.90
2022-10-25T07:17:39.386Z,68.20
2022-10-25T07:20:27.382Z,68.10
2022-10-25T07:23:16.595Z,67.60
2022-10-25T07:26:04.516Z,67.10
2022-10-25T07:28:56.779Z,66.90
2022-10-25T07:31:45.758Z,66.80
2022-10-25T07:34:34.497Z,67.00
2022-10-25T07:37:22.566Z,67.40
2022-10-25T07:40:11.894Z,67.50
2022-10-25T07:43:00.350Z,67.50
2022-10-25T07:45:52.145Z,68.00
2022-10-25T07:48:39.974Z,68.30
2022-10-25T07:51:28.768Z,68.60
2022-10-25T07:54:16.797Z,67.50
2022-10-25T07:57:06.650Z,67.30
2022-10-25T07:59:54.864Z,66.10
2022-10-25T08:02:44.429Z,66.10
2022-10-25T08:05:32.684Z,65.40
2022-10-25T08:08:23.387Z,65.70
2022-10-25T08:11:11.819Z,65.70
2022-10-25T08:13:59.963Z,66.60
2022-10-25T08:16:48.431Z,67.30
2022-10-25T08:19:38.813Z,67.30
2022-10-25T08:22:26.879Z,67.40
2022-10-25T08:25:15.413Z,68.00
2022-10-25T08:28:03.788Z,68.40
2022-10-25T08:30:54.082Z,68.90
2022-10-25T08:33:42.453Z,69.20
2022-10-25T08:36:32.570Z,68.90
2022-10-25T08:39:20.674Z,68.50
2022-10-25T08:42:15.895Z,67.90
2022-10-25T08:45:12.151Z,68.30
2022-10-25T08:48:03.639Z,68.60
2022-10-25T08:50:55.733Z,69.50
2022-10-25T08:53:51.308Z,68.90
2022-10-25T08:56:56.469Z,69.00
2022-10-25T08:59:51.147Z,68.20
2022-10-25T09:02:46.669Z,68.30
2022-10-25T09:05:39.727Z,68.30
2022-10-25T09:08:39.822Z,67.90
2022-10-25T09:11:45.497Z,67.40
2022-10-25T09:14:42.650Z,68.90
2022-10-25T09:17:40.114Z,67.90
2022-10-25T09:20:34.584Z,67.30
2022-10-25T09:23:30.016Z,67.70
2022-10-25T09:26:25.887Z,69.50
2022-10-25T09:29:24.674Z,68.20
2022-10-25T09:32:21.080Z,68.70
2022-10-25T09:35:16.826Z,68.20
2022-10-25T09:38:12.304Z,67.40
2022-10-25T09:41:04.657Z,67.30
2022-10-25T09:43:57.920Z,66.50
2022-10-25T09:46:54.291Z,66.10
2022-10-25T09:49:48.508Z,67.40
2022-10-25T09:52:45.651Z,66.10
2022-10-25T09:55:40.167Z,66.60
2022-10-25T09:58:31.807Z,67.10
2022-10-25T10:01:24.648Z,67.80
2022-10-25T10:04:26.920Z,67.00
2022-10-25T10:07:21.629Z,66.30
2022-10-25T10:10:14.305Z,67.10
2022-10-25T10:13:08.043Z,68.20
2022-10-25T10:15:59.112Z,67.90
2022-10-25T10:18:47.632Z,68.60
2022-10-25T10:21:38.756Z,69.20
2022-10-25T10:24:30.499Z,69.70
2022-10-25T10:27:27.423Z,70.20
2022-10-25T10:30:24.294Z,70.90
2022-10-25T10:33:18.770Z,71.00
2022-10-25T10:36:25.829Z,71.30
2022-10-25T10:39:21.955Z,71.50
2022-10-25T10:42:17.280Z,71.10
2022-10-25T10:50:49.641Z,71.80
2022-10-25T10:53:38.946Z,72.50
2022-10-25T10:56:30.806Z,72.50
2022-10-25T10:59:41.503Z,72.60
2022-10-25T11:07:37.412Z,73.20
2022-10-25T11:10:28.737Z,73.80
2022-10-25T11:13:19.691Z,73.80
2022-10-25T11:16:43.068Z,73.80
2022-10-25T11:19:46.909Z,74.10
2022-10-25T11:22:48.920Z,74.00
2022-10-25T11:25:42.788Z,73.70
2022-10-25T11:28:43.604Z,73.50
2022-10-25T11:31:47.626Z,73.00
2022-10-25T11:34:46.333Z,72.90
2022-10-25T11:37:41.428Z,73.00
2022-10-25T11:40:32.338Z,72.80
2022-10-25T11:43:35.396Z,73.30
2022-10-25T11:46:31.381Z,73.50
2022-10-25T11:49:36.600Z,73.70
2022-10-25T11:52:52.165Z,74.00
2022-10-25T11:55:49.915Z,74.40
2022-10-25T11:58:50.334Z,74.50
2022-10-25T12:01:54.332Z,74.90
2022-10-25T12:04:55.152Z,75.40
2022-10-25T12:07:51.632Z,75.20
2022-10-25T12:10:44.111Z,74.60
2022-10-25T12:13:36.361Z,74.10
2022-10-25T12:16:25.717Z,73.90
2022-10-25T12:19:23.159Z,75.30
2022-10-25T12:22:17.451Z,76.40
2022-10-25T12:25:10.444Z,76.70
2022-10-25T12:28:06.698Z,77.20
2022-10-25T12:31:01.018Z,77.40
2022-10-25T12:33:55.046Z,77.40
2022-10-25T12:36:48.091Z,77.60
2022-10-25T12:39:41.590Z,77.70
2022-10-25T12:42:32.986Z,77.70
2022-10-25T12:45:44.128Z,77.80
2022-10-25T12:49:00.259Z,77.60
2022-10-25T12:52:10.454Z,77.80
2022-10-25T12:55:30.596Z,78.00
2022-10-25T12:58:33.812Z,78.00
2022-10-25T13:01:39.665Z,78.00
2022-10-25T13:04:42.994Z,77.90
2022-10-25T13:07:36.634Z,78.30
2022-10-25T13:13:24.878Z,78.50
2022-10-25T13:16:23.484Z,78.80
2022-10-25T13:19:53.110Z,79.10
2022-10-25T13:22:39.807Z,79.30
2022-10-25T13:26:01.775Z,79.20
2022-10-25T13:28:50.499Z,79.70
2022-10-25T13:31:58.627Z,80.00
2022-10-25T13:34:47.773Z,80.20
2022-10-25T13:37:43.567Z,80.10
2022-10-25T13:40:32.216Z,79.90
2022-10-25T13:43:22.363Z,80.00
2022-10-25T13:46:12.733Z,80.00
2022-10-25T13:49:02.867Z,79.90
2022-10-25T13:51:51.200Z,80.00
2022-10-25T13:54:48.826Z,80.50
2022-10-25T13:57:51.405Z,79.90
2022-10-25T14:00:42.199Z,80.00
2022-10-25T14:03:36.355Z,80.60
2022-10-25T14:06:29.698Z,80.50
2022-10-25T14:09:26.886Z,80.50
2022-10-25T14:12:20.435Z,79.80
2022-10-25T14:15:14.863Z,80.20
2022-10-25T14:18:09.121Z,80.20
2022-10-25T14:21:01.528Z,80.20
2022-10-25T14:23:51.498Z,80.30
2022-10-25T14:26:49.657Z,80.40
2022-10-25T14:29:39.457Z,80.50
2022-10-25T14:32:27.704Z,80.60
2022-10-25T14:35:16.693Z,80.50
2022-10-25T14:38:16.938Z,80.60
2022-10-25T14:41:13.654Z,80.70
2022-10-25T14:44:02.381Z,81.30
2022-10-25T14:46:54.240Z,81.20
2022-10-25T14:49:42.736Z,80.10
2022-10-25T14:52:32.803Z,79.00
2022-10-25T14:55:27.522Z,78.20
2022-10-25T14:58:16.390Z,77.50
2022-10-25T15:01:05.256Z,77.10
2022-10-25T15:03:58.647Z,76.70
2022-10-25T15:06:50.102Z,76.40
2022-10-25T15:09:49.785Z,77.60
2022-10-25T15:12:38.217Z,79.60
2022-10-25T15:15:34.922Z,79.50
2022-10-25T15:18:31.152Z,78.90
2022-10-25T15:21:20.998Z,80.30
2022-10-25T15:24:14.897Z,80.80
2022-10-25T15:27:06.083Z,81.50
2022-10-25T15:29:54.590Z,81.40
2022-10-25T15:32:43.014Z,81.60
2022-10-25T15:35:32.650Z,81.80
2022-10-25T15:38:23.547Z,81.20
2022-10-25T15:41:11.353Z,80.70
2022-10-25T15:44:00.485Z,81.40
2022-10-25T15:46:49.224Z,80.90
2022-10-25T15:49:38.084Z,80.30
2022-10-25T15:52:27.093Z,80.40
2022-10-25T15:55:22.274Z,80.40
2022-10-25T15:58:11.001Z,81.40
2022-10-25T16:00:59.624Z,81.50
2022-10-25T16:03:47.874Z,80.60
2022-10-25T16:06:36.523Z,79.40
2022-10-25T16:09:24.749Z,78.50
2022-10-25T16:12:20.698Z,77.70
2022-10-25T16:15:11.942Z,77.30
2022-10-25T16:18:00.896Z,77.50
2022-10-25T16:20:49.421Z,78.00
2022-10-25T16:23:38.591Z,78.80
2022-10-25T16:26:35.741Z,79.30
2022-10-25T16:29:26.854Z,79.10
2022-10-25T16:32:15.116Z,79.00
2022-10-25T16:35:03.840Z,78.70
2022-10-25T16:37:52.275Z,78.50
2022-10-25T16:40:41.223Z,78.00
2022-10-25T16:43:29.684Z,78.10
2022-10-25T16:46:19.805Z,78.00
2022-10-25T16:49:09.475Z,79.20
2022-10-25T16:51:58.046Z,80.30
2022-10-25T16:54:47.079Z,81.10
2022-10-25T16:57:35.511Z,81.50
2022-10-25T17:00:24.413Z,81.80
2022-10-25T17:03:14.676Z,82.30
2022-10-25T17:06:22.181Z,82.50
2022-10-25T17:09:15.313Z,82.40
2022-10-25T17:12:03.395Z,83.90
2022-10-25T17:14:51.815Z,85.20
2022-10-25T17:17:41.052Z,86.10
2022-10-25T17:20:31.126Z,87.10
2022-10-25T17:23:19.706Z,86.80
2022-10-25T17:26:09.566Z,85.50
2022-10-25T17:29:00.989Z,85.80
2022-10-25T17:31:49.565Z,87.20
2022-10-25T17:34:37.866Z,88.00
2022-10-25T17:37:28.027Z,88.00
2022-10-25T17:40:16.238Z,88.70
2022-10-25T17:43:04.934Z,87.60
2022-10-25T17:45:53.230Z,87.60
2022-10-25T17:48:41.966Z,88.00
2022-10-25T17:51:30.546Z,87.90
2022-10-25T17:54:20.888Z,86.90
2022-10-25T17:57:09.286Z,86.00
2022-10-25T17:59:58.351Z,84.50
2022-10-25T18:02:50.764Z,85.20
2022-10-25T18:05:40.780Z,86.00
2022-10-25T18:08:29.127Z,87.00
2022-10-25T18:11:23.348Z,88.00
2022-10-25T18:14:11.326Z,89.20
2022-10-25T18:17:00.866Z,89.40
2022-10-25T18:19:48.760Z,89.30
2022-10-25T18:22:37.274Z,89.70
2022-10-25T18:25:25.206Z,90.00
2022-10-25T18:28:15.231Z,88.80
2022-10-25T18:31:05.672Z,90.00
2022-10-25T18:33:56.514Z,89.70
2022-10-25T18:36:44.491Z,88.80
2022-10-25T18:39:33.144Z,88.10
2022-10-25T18:42:21.456Z,86.80
2022-10-25T18:45:11.779Z,85.60
2022-10-25T18:47:59.727Z,85.00
2022-10-25T18:50:48.959Z,84.40
2022-10-25T18:53:38.622Z,83.70
2022-10-25T18:56:28.312Z,83.20
2022-10-25T18:59:16.232Z,83.50
2022-10-25T19:02:06.247Z,84.30
2022-10-25T19:04:54.693Z,84.00
2022-10-25T19:07:42.889Z,83.40
2022-10-25T19:10:30.699Z,83.40
2022-10-25T19:13:19.807Z,82.90
2022-10-25T19:16:08.478Z,82.80
2022-10-25T19:19:02.131Z,82.90
2022-10-25T19:21:50.881Z,84.30
2022-10-25T19:24:40.063Z,86.00
2022-10-25T19:27:29.050Z,86.40
2022-10-25T19:30:17.778Z,85.60
2022-10-25T19:33:06.449Z,85.80
2022-10-25T19:36:03.444Z,86.90
2022-10-25T19:38:51.320Z,85.90
2022-10-25T19:41:39.793Z,84.90
2022-10-25T19:44:28.236Z,86.10
2022-10-25T19:47:17.165Z,85.70
2022-10-25T19:50:06.721Z,85.60
2022-10-25T19:52:57.267Z,84.90
2022-10-25T19:55:45.378Z,84.80
2022-10-25T19:58:33.909Z,84.90
2022-10-25T20:01:24.257Z,85.00
2022-10-25T20:04:14.045Z,83.80
2022-10-25T20:07:02.530Z,83.20
2022-10-25T20:09:52.431Z,82.40
2022-10-25T20:12:42.232Z,82.00
2022-10-25T20:15:30.717Z,81.60
2022-10-25T20:18:20.269Z,81.90
2022-10-25T20:21:11.779Z,83.00
2022-10-25T20:24:01.134Z,82.60
2022-10-25T20:26:50.931Z,83.20
2022-10-25T20:29:40.091Z,83.00
2022-10-25T20:32:28.778Z,83.40
2022-10-25T20:35:17.050Z,82.90
2022-10-25T20:38:06.507Z,82.10
2022-10-25T20:40:54.696Z,81.90
2022-10-25T20:43:48.036Z,83.10
2022-10-25T20:46:36.547Z,84.40
2022-10-25T20:49:25.083Z,86.40
2022-10-25T20:52:13.407Z,86.70
2022-10-25T20:55:01.737Z,86.00
2022-10-25T20:57:51.058Z,85.60
2022-10-25T21:00:41.462Z,84.50
2022-10-25T21:03:31.545Z,84.00
2022-10-25T21:06:20.561Z,83.60
2022-10-25T21:09:08.932Z,85.40
2022-10-25T21:11:57.847Z,85.20
2022-10-25T21:14:45.964Z,84.00
2022-10-25T21:17:36.000Z,84.80
2022-10-25T21:20:24.137Z,86.90
2022-10-25T21:23:12.867Z,86.10
2022-10-25T21:26:02.327Z,85.00
2022-10-25T21:28:51.294Z,84.00
2022-10-25T21:31:39.342Z,83.40
2022-10-25T21:34:29.608Z,83.10
2022-10-25T21:37:17.951Z,82.70
2022-10-25T21:40:07.312Z,82.70
2022-10-25T21:42:58.346Z,82.60
2022-10-25T21:45:47.422Z,82.50
2022-10-25T21:48:35.911Z,82.30
2022-10-25T21:51:26.070Z,82.00
2022-10-25T21:54:14.374Z,82.10
2022-10-25T21:57:02.955Z,81.50
2022-10-25T21:59:51.431Z,81.80
2022-10-25T22:02:40.653Z,85.40
2022-10-25T22:05:28.914Z,87.30
2022-10-25T22:08:22.013Z,88.00
2022-10-25T22:11:15.514Z,89.00
2022-10-25T22:14:05.413Z,87.90
2022-10-25T22:16:53.626Z,87.40
2022-10-25T22:19:42.226Z,89.10
2022-10-25T22:22:30.921Z,88.70
2022-10-25T22:25:20.506Z,89.10
2022-10-25T22:28:09.315Z,88.50
2022-10-25T22:31:02.163Z,88.10
2022-10-25T22:33:54.165Z,87.00
2022-10-25T22:36:43.321Z,86.90
2022-10-25T22:39:32.023Z,87.60
2022-10-25T22:42:21.739Z,88.70
2022-10-25T22:45:10.599Z,88.50
2022-10-25T22:47:59.175Z,87.60
2022-10-25T22:50:51.334Z,85.80
2022-10-25T22:53:41.134Z,84.60
2022-10-25T22:56:31.271Z,84.20
2022-10-25T22:59:21.408Z,84.00
2022-10-25T23:02:10.019Z,83.80
2022-10-25T23:04:58.828Z,83.30
2022-10-25T23:07:47.195Z,82.40
2022-10-25T23:10:35.871Z,82.80
2022-10-25T23:13:24.316Z,84.90
2022-10-25T23:16:15.204Z,87.30
2022-10-25T23:19:03.539Z,88.60
2022-10-25T23:21:52.112Z,88.80
2022-10-25T23:24:40.332Z,88.70
2022-10-25T23:27:30.210Z,87.80
2022-10-25T23:30:18.920Z,88.40
2022-10-25T23:33:10.441Z,87.90
2022-10-25T23:36:02.810Z,87.30
2022-10-25T23:38:52.651Z,86.60
2022-10-25T23:41:41.475Z,88.60
2022-10-25T23:44:29.946Z,89.00
2022-10-25T23:47:18.442Z,87.40
2022-10-25T23:50:09.814Z,86.70
2022-10-25T23:52:57.978Z,85.80
2022-10-25T23:55:46.659Z,87.20
2022-10-25T23:58:35.293Z,86.90
